Time;durP1;ratioP1;P1;durP2;ratioP2;P2;SDS_P1;SDS_P2;PMS_P1;PMS_P2;Temp;Humidity;BMP_temperature;BMP_pressure;BME280_temperature;BME280_humidity;BME280_pressure;Samples;Min_cycle;Max_cycle;Signal;HPM_P1;HPM_P2
2022/11/09 00:01:20;;;;;;;2.00;0.90;;;;;;;;;;4995898;28;20553;-80
2022/11/09 00:03:46;;;;;;;3.03;1.00;;;;;;;;;;4996317;28;20061;-81
2022/11/09 00:06:13;;;;;;;5.28;1.23;;;;;;;;;;5007874;28;20060;-79
2022/11/09 00:08:40;;;;;;;2.80;1.08;;;;;;;;;;4999165;28;20085;-80
2022/11/09 00:11:08;;;;;;;1.77;0.90;;;;;;;;;;5015516;28;20558;-79
2022/11/09 00:13:35;;;;;;;7.13;1.02;;;;;;;;;;5015575;28;20042;-80
2022/11/09 00:16:02;;;;;;;5.20;2.28;;;;;;;;;;4996401;28;20054;-81
2022/11/09 00:18:29;;;;;;;2.67;0.80;;;;;;;;;;4996453;28;20105;-79
2022/11/09 00:20:55;;;;;;;2.58;1.10;;;;;;;;;;4989446;28;20046;-81
2022/11/09 00:23:22;;;;;;;2.38;0.80;;;;;;;;;;4995117;28;20635;-81
2022/11/09 00:25:48;;;;;;;2.90;0.95;;;;;;;;;;4988991;28;20077;-80
2022/11/09 00:28:15;;;;;;;1.88;0.70;;;;;;;;;;4996008;28;20136;-81
2022/11/09 00:30:41;;;;;;;2.70;1.00;;;;;;;;;;4996053;28;20061;-81
2022/11/09 00:33:09;;;;;;;1.65;0.77;;;;;;;;;;4995825;28;20133;-82
2022/11/09 00:35:39;;;;;;;1.92;0.90;;;;;;;;;;4996004;28;20419;-82
2022/11/09 00:38:05;;;;;;;2.70;1.00;;;;;;;;;;4996309;28;20073;-78
2022/11/09 00:40:32;;;;;;;2.20;0.90;;;;;;;;;;4996450;28;20065;-80
2022/11/09 00:42:58;;;;;;;2.80;0.80;;;;;;;;;;4998708;28;20050;-81
2022/11/09 00:45:24;;;;;;;1.42;0.73;;;;;;;;;;4999479;28;20062;-79
2022/11/09 00:47:51;;;;;;;2.00;0.98;;;;;;;;;;4998580;28;20061;-80
2022/11/09 00:50:17;;;;;;;3.20;0.85;;;;;;;;;;4998837;28;20065;-79
2022/11/09 00:52:43;;;;;;;1.80;0.90;;;;;;;;;;5006086;28;20047;-79
2022/11/09 00:55:10;;;;;;;3.03;0.98;;;;;;;;;;5001697;28;20061;-79
2022/11/09 00:57:36;;;;;;;2.97;0.90;;;;;;;;;;5000026;28;20572;-80
2022/11/09 01:00:03;;;;;;;4.32;0.90;;;;;;;;;;4998566;28;20052;-79
2022/11/09 01:02:29;;;;;;;0.98;0.73;;;;;;;;;;4981170;28;20051;-79
2022/11/09 01:04:55;;;;;;;3.85;1.00;;;;;;;;;;5008220;28;20050;-79
2022/11/09 01:07:22;;;;;;;4.13;0.85;;;;;;;;;;4999833;28;20502;-80
2022/11/09 01:09:48;;;;;;;1.58;0.90;;;;;;;;;;5003144;28;20121;-78
2022/11/09 01:12:14;;;;;;;4.75;0.82;;;;;;;;;;5006050;28;20109;-79
2022/11/09 01:14:41;;;;;;;2.20;0.90;;;;;;;;;;5004698;28;20050;-79
2022/11/09 01:17:07;;;;;;;5.50;0.90;;;;;;;;;;5002274;28;20049;-78
2022/11/09 01:19:34;;;;;;;7.55;1.02;;;;;;;;;;5005051;28;20073;-78
2022/11/09 01:22:00;;;;;;;3.80;0.90;;;;;;;;;;5007478;28;20046;-78
2022/11/09 01:24:27;;;;;;;2.63;0.90;;;;;;;;;;5007171;28;20109;-79
2022/11/09 01:26:53;;;;;;;1.50;0.77;;;;;;;;;;5004270;28;20130;-81
2022/11/09 01:29:20;;;;;;;1.27;0.80;;;;;;;;;;4994809;28;20054;-80
2022/11/09 01:31:47;;;;;;;2.90;0.93;;;;;;;;;;4998818;28;20177;-80
2022/11/09 01:34:16;;;;;;;1.77;0.98;;;;;;;;;;4993869;28;20133;-81
2022/11/09 01:36:42;;;;;;;1.00;0.75;;;;;;;;;;4997300;28;20048;-79
2022/11/09 01:39:09;;;;;;;2.25;0.85;;;;;;;;;;4996355;28;20057;-78
2022/11/09 01:41:35;;;;;;;1.70;0.90;;;;;;;;;;4994855;28;20252;-80
2022/11/09 01:44:01;;;;;;;2.00;0.80;;;;;;;;;;4990936;28;20058;-78
2022/11/09 01:46:33;;;;;;;1.83;0.80;;;;;;;;;;4994263;28;20046;-80
2022/11/09 01:49:02;;;;;;;1.67;0.80;;;;;;;;;;4988773;28;20077;-79
2022/11/09 01:51:31;;;;;;;5.32;1.00;;;;;;;;;;4994408;28;20047;-81
2022/11/09 01:54:01;;;;;;;7.10;1.15;;;;;;;;;;4989029;28;20046;-80
2022/11/09 01:56:29;;;;;;;3.80;1.20;;;;;;;;;;4993839;28;20046;-80
2022/11/09 01:59:01;;;;;;;1.77;1.00;;;;;;;;;;4987245;28;20046;-81
2022/11/09 02:01:28;;;;;;;3.03;1.05;;;;;;;;;;4994446;28;20046;-79
2022/11/09 02:03:58;;;;;;;2.50;0.85;;;;;;;;;;5002527;28;20407;-79
2022/11/09 02:06:26;;;;;;;2.72;0.90;;;;;;;;;;4998583;28;20073;-80
2022/11/09 02:08:54;;;;;;;2.28;1.00;;;;;;;;;;4982628;28;20101;-82
2022/11/09 02:11:21;;;;;;;3.33;1.20;;;;;;;;;;4975719;28;20062;-79
2022/11/09 02:13:51;;;;;;;1.77;1.00;;;;;;;;;;4978704;28;20372;-80
2022/11/09 02:16:17;;;;;;;2.80;0.90;;;;;;;;;;4991762;28;20518;-76
2022/11/09 02:18:55;;;;;;;2.28;1.02;;;;;;;;;;4995271;28;20077;-81
2022/11/09 02:21:22;;;;;;;3.92;1.30;;;;;;;;;;4995549;28;20047;-82
2022/11/09 02:23:49;;;;;;;4.07;1.00;;;;;;;;;;4993354;28;20050;-82
2022/11/09 02:26:18;;;;;;;2.78;0.95;;;;;;;;;;4989890;28;20054;-80
2022/11/09 02:28:45;;;;;;;1.83;0.82;;;;;;;;;;4993958;28;20050;-81
2022/11/09 02:31:13;;;;;;;6.15;1.30;;;;;;;;;;4989128;28;20054;-79
2022/11/09 02:33:43;;;;;;;3.00;1.13;;;;;;;;;;4992728;28;20042;-81
2022/11/09 02:36:09;;;;;;;3.20;0.93;;;;;;;;;;4992909;28;20051;-80
2022/11/09 02:38:36;;;;;;;3.55;0.90;;;;;;;;;;4991244;28;20625;-80
2022/11/09 02:41:02;;;;;;;2.05;0.98;;;;;;;;;;4987412;28;20057;-79
2022/11/09 02:43:29;;;;;;;1.38;0.90;;;;;;;;;;4993348;28;20050;-82
2022/11/09 02:45:55;;;;;;;5.45;1.20;;;;;;;;;;4995012;28;20056;-81
2022/11/09 02:48:21;;;;;;;2.85;0.90;;;;;;;;;;4995614;28;20054;-79
2022/11/09 02:50:48;;;;;;;4.22;1.10;;;;;;;;;;4989395;28;20056;-79
2022/11/09 02:53:14;;;;;;;2.70;0.80;;;;;;;;;;4995171;28;20051;-78
2022/11/09 02:55:41;;;;;;;3.17;0.90;;;;;;;;;;4995789;28;20054;-78
2022/11/09 02:58:07;;;;;;;2.63;1.05;;;;;;;;;;4995791;28;20057;-78
2022/11/09 03:00:33;;;;;;;2.03;0.90;;;;;;;;;;4993525;28;20069;-78
2022/11/09 03:03:00;;;;;;;3.72;1.20;;;;;;;;;;4997741;28;20065;-80
2022/11/09 03:05:26;;;;;;;4.00;1.08;;;;;;;;;;5003101;28;20049;-79
2022/11/09 03:07:53;;;;;;;2.63;0.88;;;;;;;;;;5008361;28;20050;-79
2022/11/09 03:10:19;;;;;;;2.72;0.98;;;;;;;;;;5017423;28;20050;-80
2022/11/09 03:12:45;;;;;;;4.32;1.27;;;;;;;;;;5011176;28;20437;-79
2022/11/09 03:15:12;;;;;;;3.45;0.90;;;;;;;;;;5006200;28;20057;-80
2022/11/09 03:17:38;;;;;;;1.38;0.90;;;;;;;;;;4996843;28;20046;-80
2022/11/09 03:20:05;;;;;;;3.33;1.10;;;;;;;;;;4995202;28;20058;-81
2022/11/09 03:22:31;;;;;;;3.90;1.20;;;;;;;;;;4996948;28;20049;-80
2022/11/09 03:24:58;;;;;;;1.98;1.00;;;;;;;;;;4992276;28;20118;-80
2022/11/09 03:27:24;;;;;;;4.13;0.95;;;;;;;;;;5000482;28;20054;-80
2022/11/09 03:29:51;;;;;;;2.22;1.00;;;;;;;;;;4997410;28;20053;-79
2022/11/09 03:32:17;;;;;;;4.15;1.02;;;;;;;;;;5004372;28;20054;-80
2022/11/09 03:34:44;;;;;;;3.08;0.85;;;;;;;;;;5004941;28;20043;-79
2022/11/09 03:37:10;;;;;;;4.45;1.08;;;;;;;;;;5004521;28;20423;-79
2022/11/09 03:39:36;;;;;;;2.33;0.88;;;;;;;;;;5002899;28;20110;-80
2022/11/09 03:42:03;;;;;;;1.92;0.90;;;;;;;;;;4998425;28;20050;-78
2022/11/09 03:44:29;;;;;;;2.00;0.82;;;;;;;;;;5004208;28;20054;-79
2022/11/09 03:46:55;;;;;;;2.00;1.05;;;;;;;;;;5004127;28;20050;-79
2022/11/09 03:49:25;;;;;;;3.40;1.15;;;;;;;;;;5003673;28;20054;-79
2022/11/09 03:51:51;;;;;;;2.03;1.02;;;;;;;;;;4996431;28;20141;-79
2022/11/09 03:54:19;;;;;;;4.47;1.40;;;;;;;;;;5002683;28;20046;-78
2022/11/09 03:56:45;;;;;;;3.40;1.38;;;;;;;;;;4996160;28;20046;-78
2022/11/09 03:59:11;;;;;;;3.08;1.15;;;;;;;;;;5004476;28;20058;-78
2022/11/09 04:01:38;;;;;;;2.20;1.20;;;;;;;;;;5004807;28;20438;-78
2022/11/09 04:04:04;;;;;;;2.03;1.13;;;;;;;;;;5011825;28;20152;-79
2022/11/09 04:06:31;;;;;;;2.03;1.10;;;;;;;;;;5008329;28;20057;-80
2022/11/09 04:08:57;;;;;;;2.97;1.00;;;;;;;;;;5006450;28;20515;-81
2022/11/09 04:11:23;;;;;;;2.97;1.30;;;;;;;;;;4994677;28;20491;-80
2022/11/09 04:13:50;;;;;;;5.53;1.10;;;;;;;;;;5011803;28;20046;-82
2022/11/09 04:16:16;;;;;;;3.83;1.20;;;;;;;;;;4990386;28;20046;-80
2022/11/09 04:18:42;;;;;;;2.47;1.13;;;;;;;;;;4985809;28;20051;-80
2022/11/09 04:21:09;;;;;;;2.65;1.10;;;;;;;;;;5002731;28;20042;-78
2022/11/09 04:23:35;;;;;;;5.32;1.20;;;;;;;;;;5002595;28;20066;-79
2022/11/09 04:26:02;;;;;;;2.25;1.20;;;;;;;;;;4993457;28;20081;-81
2022/11/09 04:28:28;;;;;;;2.40;1.13;;;;;;;;;;4994167;28;20073;-80
2022/11/09 04:30:58;;;;;;;2.45;1.17;;;;;;;;;;4995099;28;20046;-79
2022/11/09 04:33:24;;;;;;;1.92;1.15;;;;;;;;;;4992097;28;20054;-80
2022/11/09 04:35:51;;;;;;;2.58;1.38;;;;;;;;;;4998685;28;20042;-79
2022/11/09 04:38:17;;;;;;;4.40;1.17;;;;;;;;;;4996693;28;20077;-79
2022/11/09 04:40:43;;;;;;;1.48;0.98;;;;;;;;;;4988995;28;20058;-81
2022/11/09 04:43:11;;;;;;;3.10;1.20;;;;;;;;;;4998067;28;20077;-81
2022/11/09 04:45:37;;;;;;;2.38;1.17;;;;;;;;;;5000871;28;20065;-80
2022/11/09 04:48:05;;;;;;;3.47;1.10;;;;;;;;;;4998092;28;20050;-79
2022/11/09 04:50:32;;;;;;;3.38;1.40;;;;;;;;;;4997389;28;20050;-83
2022/11/09 04:53:06;;;;;;;3.42;1.30;;;;;;;;;;5000388;28;20590;-80
2022/11/09 04:55:44;;;;;;;4.05;1.42;;;;;;;;;;4994017;28;20046;-79
2022/11/09 04:58:11;;;;;;;3.05;1.17;;;;;;;;;;4995269;28;20169;-81
2022/11/09 05:00:37;;;;;;;5.40;1.20;;;;;;;;;;4995896;28;20057;-82
2022/11/09 05:03:04;;;;;;;5.80;1.40;;;;;;;;;;4995606;28;20121;-83
2022/11/09 05:05:31;;;;;;;3.97;1.50;;;;;;;;;;5008036;28;20388;-80
2022/11/09 05:07:58;;;;;;;2.70;1.38;;;;;;;;;;4997492;28;20052;-78
2022/11/09 05:10:24;;;;;;;3.70;1.23;;;;;;;;;;5002282;28;20065;-77
2022/11/09 05:12:56;;;;;;;4.57;1.25;;;;;;;;;;5005911;28;20100;-77
2022/11/09 05:15:22;;;;;;;3.90;1.20;;;;;;;;;;5007455;28;20084;-78
2022/11/09 05:17:48;;;;;;;3.97;1.60;;;;;;;;;;5006767;28;20050;-79
2022/11/09 05:20:15;;;;;;;3.75;1.38;;;;;;;;;;4995531;28;20046;-80
2022/11/09 05:25:26;;;;;;;5.00;1.47;;;;;;;;;;5005205;28;20125;-78
2022/11/09 05:27:53;;;;;;;3.83;1.33;;;;;;;;;;5006032;28;20615;-82
2022/11/09 05:30:20;;;;;;;3.42;1.30;;;;;;;;;;5007692;28;20050;-79
2022/11/09 05:32:46;;;;;;;2.92;1.15;;;;;;;;;;5008530;28;20054;-80
2022/11/09 05:35:13;;;;;;;5.32;1.70;;;;;;;;;;5004309;28;20114;-81
2022/11/09 05:37:39;;;;;;;3.13;1.30;;;;;;;;;;4991462;28;20046;-80
2022/11/09 05:40:06;;;;;;;2.78;1.42;;;;;;;;;;4996745;28;20061;-80
2022/11/09 05:42:33;;;;;;;2.90;1.50;;;;;;;;;;4996873;28;20046;-80
2022/11/09 05:45:00;;;;;;;2.60;1.40;;;;;;;;;;4992379;28;20073;-79
2022/11/09 05:47:46;;;;;;;5.28;1.58;;;;;;;;;;4997174;28;20054;-79
2022/11/09 05:50:13;;;;;;;3.83;1.38;;;;;;;;;;4994957;28;20586;-79
2022/11/09 05:52:40;;;;;;;4.93;1.50;;;;;;;;;;4996033;28;20050;-79
2022/11/09 05:55:07;;;;;;;2.97;1.38;;;;;;;;;;4995468;28;20141;-79
2022/11/09 05:57:33;;;;;;;2.78;1.20;;;;;;;;;;4994245;28;20057;-82
2022/11/09 05:59:59;;;;;;;5.13;1.70;;;;;;;;;;4988613;28;20046;-81
2022/11/09 06:02:29;;;;;;;3.80;1.30;;;;;;;;;;4994665;28;20129;-81
2022/11/09 06:04:55;;;;;;;2.78;1.30;;;;;;;;;;5002075;28;20060;-80
2022/11/09 06:07:21;;;;;;;4.07;1.23;;;;;;;;;;5011548;28;20058;-79
2022/11/09 06:09:48;;;;;;;5.28;1.30;;;;;;;;;;5005974;28;20117;-79
2022/11/09 06:12:14;;;;;;;3.65;1.55;;;;;;;;;;5015514;28;20640;-80
2022/11/09 06:14:40;;;;;;;5.03;1.55;;;;;;;;;;5006124;28;20046;-82
2022/11/09 06:17:07;;;;;;;2.42;1.45;;;;;;;;;;5005017;28;20541;-80
2022/11/09 06:19:33;;;;;;;3.35;1.40;;;;;;;;;;4999758;28;20117;-80
2022/11/09 06:22:00;;;;;;;3.65;1.45;;;;;;;;;;4999163;28;20046;-79
2022/11/09 06:24:26;;;;;;;4.97;1.13;;;;;;;;;;5009916;28;20037;-79
2022/11/09 06:26:52;;;;;;;2.70;1.23;;;;;;;;;;5000931;28;20150;-79
2022/11/09 06:29:19;;;;;;;2.42;1.45;;;;;;;;;;5004432;28;20056;-81
2022/11/09 06:31:47;;;;;;;4.13;1.48;;;;;;;;;;4988939;28;20046;-77
2022/11/09 06:34:14;;;;;;;2.63;1.48;;;;;;;;;;4994118;28;20047;-81
2022/11/09 06:36:40;;;;;;;2.45;1.20;;;;;;;;;;4997182;28;20042;-83
2022/11/09 06:39:10;;;;;;;5.28;1.90;;;;;;;;;;4995720;28;20096;-82
2022/11/09 06:41:36;;;;;;;3.08;1.33;;;;;;;;;;4991980;28;20546;-82
2022/11/09 06:44:04;;;;;;;3.00;1.50;;;;;;;;;;4988539;28;20046;-82
2022/11/09 06:46:35;;;;;;;3.45;1.40;;;;;;;;;;4993480;28;20050;-79
2022/11/09 06:49:02;;;;;;;4.78;1.40;;;;;;;;;;5001064;28;20065;-81
2022/11/09 06:51:28;;;;;;;5.75;1.50;;;;;;;;;;5001347;28;20050;-80
2022/11/09 06:53:54;;;;;;;2.58;1.27;;;;;;;;;;5000011;28;20064;-81
2022/11/09 06:56:23;;;;;;;4.80;1.42;;;;;;;;;;5011254;28;20054;-79
2022/11/09 06:58:50;;;;;;;3.28;1.13;;;;;;;;;;5006765;28;20060;-80
2022/11/09 07:01:17;;;;;;;4.38;1.60;;;;;;;;;;4999336;28;20145;-80
2022/11/09 07:03:44;;;;;;;9.80;1.60;;;;;;;;;;4998329;28;20049;-81
2022/11/09 07:06:11;;;;;;;7.55;1.52;;;;;;;;;;5009012;28;20061;-80
2022/11/09 07:08:37;;;;;;;2.92;1.50;;;;;;;;;;5015192;28;20057;-82
2022/11/09 07:11:09;;;;;;;3.08;1.25;;;;;;;;;;5011164;28;20046;-83
2022/11/09 07:13:35;;;;;;;2.88;1.60;;;;;;;;;;5016304;28;20181;-81
2022/11/09 07:16:02;;;;;;;2.45;1.45;;;;;;;;;;4996286;28;20053;-84
2022/11/09 07:18:28;;;;;;;2.85;1.40;;;;;;;;;;4997004;28;20415;-81
2022/11/09 07:20:55;;;;;;;2.97;1.50;;;;;;;;;;4989727;28;20046;-82
2022/11/09 07:23:21;;;;;;;3.97;1.58;;;;;;;;;;4996053;28;20046;-82
2022/11/09 07:25:48;;;;;;;3.28;1.70;;;;;;;;;;4989079;28;20065;-83
2022/11/09 07:28:15;;;;;;;3.47;1.50;;;;;;;;;;4997572;28;20058;-82
2022/11/09 07:30:41;;;;;;;3.67;1.65;;;;;;;;;;4987596;28;20046;-80
2022/11/09 07:33:12;;;;;;;2.13;1.40;;;;;;;;;;4996909;28;20090;-80
2022/11/09 07:35:38;;;;;;;5.00;1.67;;;;;;;;;;5001914;28;20046;-80
2022/11/09 07:38:05;;;;;;;4.05;1.40;;;;;;;;;;4992694;28;20052;-81
2022/11/09 07:40:31;;;;;;;2.95;1.55;;;;;;;;;;4994128;28;20046;-79
2022/11/09 07:42:58;;;;;;;2.42;1.38;;;;;;;;;;4994393;28;20049;-81
2022/11/09 07:45:25;;;;;;;3.22;1.50;;;;;;;;;;4992260;28;20065;-81
2022/11/09 07:47:55;;;;;;;2.90;1.33;;;;;;;;;;4988108;28;20050;-79
2022/11/09 07:50:22;;;;;;;3.67;1.55;;;;;;;;;;4995963;28;20423;-79
2022/11/09 07:52:48;;;;;;;3.67;1.63;;;;;;;;;;4988467;28;20780;-82
2022/11/09 07:55:14;;;;;;;4.55;1.73;;;;;;;;;;4998161;28;20046;-80
2022/11/09 07:57:43;;;;;;;2.50;1.40;;;;;;;;;;4998728;28;20046;-81
2022/11/09 08:00:10;;;;;;;4.45;1.30;;;;;;;;;;4998545;28;20078;-81
2022/11/09 08:02:36;;;;;;;4.00;1.58;;;;;;;;;;4995093;28;20046;-82
2022/11/09 08:05:02;;;;;;;2.90;1.48;;;;;;;;;;4995970;28;20639;-80
2022/11/09 08:07:29;;;;;;;2.38;1.40;;;;;;;;;;4975414;28;20051;-82
2022/11/09 08:09:55;;;;;;;3.75;1.70;;;;;;;;;;4967910;28;20046;-82
2022/11/09 08:12:21;;;;;;;3.83;1.75;;;;;;;;;;4975180;28;20062;-80
2022/11/09 08:14:48;;;;;;;2.97;1.33;;;;;;;;;;4987410;28;20065;-82
2022/11/09 08:17:14;;;;;;;5.35;1.50;;;;;;;;;;4979833;28;20078;-80
2022/11/09 08:19:40;;;;;;;5.25;1.90;;;;;;;;;;4973263;28;20051;-80
2022/11/09 08:22:07;;;;;;;3.83;1.65;;;;;;;;;;4973787;28;20053;-78
2022/11/09 08:24:33;;;;;;;3.13;1.98;;;;;;;;;;4974074;28;20046;-80
2022/11/09 08:26:59;;;;;;;3.83;1.88;;;;;;;;;;4976666;28;20109;-78
2022/11/09 08:29:26;;;;;;;3.45;2.03;;;;;;;;;;4976794;28;20043;-79
2022/11/09 08:31:52;;;;;;;3.92;2.05;;;;;;;;;;4982338;28;20047;-80
2022/11/09 08:34:18;;;;;;;2.72;1.88;;;;;;;;;;4983446;28;20122;-81
2022/11/09 08:36:45;;;;;;;7.78;2.20;;;;;;;;;;4979342;28;20133;-79
2022/11/09 08:39:11;;;;;;;8.65;2.08;;;;;;;;;;4973772;28;20050;-79
2022/11/09 08:41:37;;;;;;;4.50;2.20;;;;;;;;;;4983765;28;20047;-81
2022/11/09 08:44:04;;;;;;;6.28;2.22;;;;;;;;;;4983951;28;20089;-81
2022/11/09 08:46:30;;;;;;;7.20;2.33;;;;;;;;;;4981766;28;20062;-81
2022/11/09 08:48:59;;;;;;;5.75;2.47;;;;;;;;;;4981051;28;20154;-80
2022/11/09 08:51:25;;;;;;;5.88;2.70;;;;;;;;;;4980022;28;20547;-79
2022/11/09 08:53:51;;;;;;;8.07;4.03;;;;;;;;;;4981149;28;20047;-81
2022/11/09 08:56:18;;;;;;;5.72;2.45;;;;;;;;;;4986240;28;20054;-80
2022/11/09 08:58:44;;;;;;;3.67;1.95;;;;;;;;;;4977000;28;20043;-79
2022/11/09 09:01:11;;;;;;;4.93;2.45;;;;;;;;;;4975741;28;20051;-79
2022/11/09 09:03:42;;;;;;;8.50;2.40;;;;;;;;;;4981028;28;20046;-81
2022/11/09 09:06:08;;;;;;;8.10;2.13;;;;;;;;;;5016251;28;20048;-77
2022/11/09 09:08:35;;;;;;;5.93;1.83;;;;;;;;;;5034709;28;20069;-78
2022/11/09 09:11:02;;;;;;;4.18;1.92;;;;;;;;;;5027638;28;20698;-78
2022/11/09 09:13:28;;;;;;;8.95;2.20;;;;;;;;;;5029575;28;20050;-77
2022/11/09 09:15:55;;;;;;;3.63;1.90;;;;;;;;;;5012996;28;20055;-78
2022/11/09 09:18:21;;;;;;;6.70;1.85;;;;;;;;;;5005829;28;20057;-80
2022/11/09 09:20:48;;;;;;;5.93;2.00;;;;;;;;;;4998399;28;20077;-78
2022/11/09 09:23:15;;;;;;;6.22;1.80;;;;;;;;;;5002355;28;20043;-79
2022/11/09 09:25:42;;;;;;;5.78;1.90;;;;;;;;;;4992957;28;20057;-79
2022/11/09 09:28:09;;;;;;;5.05;2.13;;;;;;;;;;4993091;28;20054;-78
2022/11/09 09:30:35;;;;;;;7.45;1.92;;;;;;;;;;4993357;28;20046;-79
2022/11/09 09:33:02;;;;;;;6.82;2.08;;;;;;;;;;4994841;28;20058;-77
2022/11/09 09:35:28;;;;;;;3.42;1.77;;;;;;;;;;5001203;28;20061;-80
2022/11/09 09:37:56;;;;;;;5.13;1.67;;;;;;;;;;4994880;28;20442;-78
2022/11/09 09:40:35;;;;;;;3.20;1.30;;;;;;;;;;4989908;28;20609;-78
2022/11/09 09:43:02;;;;;;;2.28;1.00;;;;;;;;;;4987504;28;20058;-78
2022/11/09 09:45:32;;;;;;;3.95;1.20;;;;;;;;;;4992263;28;20499;-79
2022/11/09 09:48:16;;;;;;;10.15;1.17;;;;;;;;;;4993652;28;20054;-79
2022/11/09 09:50:51;;;;;;;2.78;1.27;;;;;;;;;;4993167;28;20052;-78
2022/11/09 09:53:25;;;;;;;4.57;1.13;;;;;;;;;;4989000;28;20093;-79
2022/11/09 09:56:03;;;;;;;1.45;1.00;;;;;;;;;;4984763;28;20070;-79
2022/11/09 09:58:31;;;;;;;1.95;1.10;;;;;;;;;;4993601;28;20133;-78
2022/11/09 10:01:02;;;;;;;1.40;1.00;;;;;;;;;;4986423;28;20050;-79
2022/11/09 10:03:28;;;;;;;2.58;1.10;;;;;;;;;;4997689;28;20041;-79
2022/11/09 10:05:59;;;;;;;2.38;1.35;;;;;;;;;;4996787;28;20447;-79
2022/11/09 10:08:32;;;;;;;2.15;1.20;;;;;;;;;;5013100;28;20058;-78
2022/11/09 10:11:04;;;;;;;1.92;1.15;;;;;;;;;;5013767;28;20089;-79
2022/11/09 10:13:46;;;;;;;2.30;1.30;;;;;;;;;;5013619;28;20526;-80
2022/11/09 10:16:18;;;;;;;2.65;1.20;;;;;;;;;;5021806;28;20053;-79
2022/11/09 10:18:45;;;;;;;1.77;1.10;;;;;;;;;;5010393;28;20042;-81
2022/11/09 10:21:20;;;;;;;2.70;1.10;;;;;;;;;;5006506;28;20133;-80
2022/11/09 10:23:55;;;;;;;1.65;1.02;;;;;;;;;;5010185;28;20077;-80
2022/11/09 10:26:25;;;;;;;4.38;1.35;;;;;;;;;;5016955;28;20052;-80
2022/11/09 10:28:58;;;;;;;1.40;0.80;;;;;;;;;;5016844;28;20060;-80
2022/11/09 10:31:43;;;;;;;1.20;0.90;;;;;;;;;;5015078;28;20085;-78
2022/11/09 10:34:20;;;;;;;3.63;2.00;;;;;;;;;;5010553;28;20057;-79
2022/11/09 10:36:46;;;;;;;1.70;0.88;;;;;;;;;;5011701;28;20057;-79
2022/11/09 10:39:13;;;;;;;3.35;1.00;;;;;;;;;;5011254;28;20046;-79
2022/11/09 10:41:43;;;;;;;1.50;0.80;;;;;;;;;;5004436;28;20046;-78
2022/11/09 10:44:17;;;;;;;1.05;0.63;;;;;;;;;;5014099;28;20061;-81
2022/11/09 10:47:04;;;;;;;2.15;0.95;;;;;;;;;;5005202;28;20050;-81
2022/11/09 10:49:30;;;;;;;1.10;0.80;;;;;;;;;;5013237;28;20046;-81
2022/11/09 10:51:56;;;;;;;1.77;0.70;;;;;;;;;;5012162;28;20042;-81
2022/11/09 10:54:26;;;;;;;1.50;0.70;;;;;;;;;;5015186;28;20058;-78
2022/11/09 10:57:31;;;;;;;2.58;0.63;;;;;;;;;;5022098;28;20375;-81
2022/11/09 10:59:57;;;;;;;1.33;0.80;;;;;;;;;;4931835;29;20081;-81
2022/11/09 11:02:24;;;;;;;1.30;0.68;;;;;;;;;;4929842;29;20047;-80
2022/11/09 11:04:51;;;;;;;1.55;0.75;;;;;;;;;;4957459;28;20054;-79
2022/11/09 11:07:21;;;;;;;1.98;0.80;;;;;;;;;;5009791;28;20368;-79
2022/11/09 11:09:47;;;;;;;1.30;0.77;;;;;;;;;;5010929;28;20050;-79
2022/11/09 11:12:15;;;;;;;1.67;0.82;;;;;;;;;;5010641;28;20423;-80
2022/11/09 11:14:43;;;;;;;1.33;0.60;;;;;;;;;;5001029;28;20050;-79
2022/11/09 11:17:26;;;;;;;0.70;0.60;;;;;;;;;;4992148;28;20162;-79
2022/11/09 11:19:52;;;;;;;1.05;0.80;;;;;;;;;;4991281;28;20536;-80
2022/11/09 11:22:22;;;;;;;1.17;0.80;;;;;;;;;;4990424;28;20054;-81
2022/11/09 11:24:55;;;;;;;1.20;0.80;;;;;;;;;;4991340;28;20085;-80
2022/11/09 11:27:26;;;;;;;1.42;0.80;;;;;;;;;;4991776;28;20134;-81
2022/11/09 11:29:57;;;;;;;0.90;0.60;;;;;;;;;;4991528;28;20046;-81
2022/11/09 11:32:23;;;;;;;1.35;0.80;;;;;;;;;;4992254;28;20115;-81
2022/11/09 11:34:50;;;;;;;2.17;0.80;;;;;;;;;;4998043;28;20042;-78
2022/11/09 11:37:36;;;;;;;1.05;0.70;;;;;;;;;;4997025;28;20645;-80
2022/11/09 11:40:02;;;;;;;1.10;0.60;;;;;;;;;;4991318;28;20056;-79
2022/11/09 11:42:43;;;;;;;6.40;0.80;;;;;;;;;;4988747;28;20046;-79
2022/11/09 11:45:32;;;;;;;2.05;0.73;;;;;;;;;;4989034;28;20042;-80
2022/11/09 11:48:06;;;;;;;;;;;;;;;;;;4995021;28;20082;-82
2022/11/09 11:50:35;;;;;;;1.95;0.93;;;;;;;;;;4994519;28;19922;-81
2022/11/09 11:53:07;;;;;;;1.70;0.70;;;;;;;;;;4988336;28;20054;-80
2022/11/09 11:55:33;;;;;;;1.77;0.60;;;;;;;;;;4992481;28;20057;-80
2022/11/09 11:58:12;;;;;;;1.38;0.63;;;;;;;;;;4994376;28;20065;-81
2022/11/09 12:00:47;;;;;;;0.77;0.60;;;;;;;;;;4981527;28;20061;-81
2022/11/09 12:03:16;;;;;;;1.55;0.50;;;;;;;;;;4995599;28;20046;-81
2022/11/09 12:06:01;;;;;;;1.10;0.60;;;;;;;;;;5002801;28;20053;-81
2022/11/09 12:08:48;;;;;;;1.38;0.57;;;;;;;;;;5012969;28;20049;-80
2022/11/09 12:11:15;;;;;;;0.80;0.55;;;;;;;;;;5008420;28;20046;-81
2022/11/09 12:14:00;;;;;;;1.23;0.60;;;;;;;;;;5011228;28;20054;-83
2022/11/09 12:16:30;;;;;;;2.20;0.57;;;;;;;;;;4994424;28;20129;-80
2022/11/09 12:18:59;;;;;;;1.27;0.70;;;;;;;;;;4994022;28;20046;-84
2022/11/09 12:21:38;;;;;;;1.08;0.55;;;;;;;;;;4995614;28;20058;-81
2022/11/09 12:24:04;;;;;;;1.30;0.70;;;;;;;;;;4995281;28;20050;-82
2022/11/09 12:26:49;;;;;;;0.93;0.60;;;;;;;;;;5009759;28;20042;-81
2022/11/09 12:29:47;;;;;;;1.08;0.65;;;;;;;;;;5015484;28;20054;-81
2022/11/09 12:32:16;;;;;;;3.17;0.82;;;;;;;;;;5009834;28;20046;-81
2022/11/09 12:34:42;;;;;;;4.07;0.80;;;;;;;;;;4989495;28;20526;-81
2022/11/09 12:37:14;;;;;;;1.02;0.60;;;;;;;;;;4996041;28;20050;-83
2022/11/09 12:39:46;;;;;;;1.35;0.68;;;;;;;;;;4995709;28;20467;-79
2022/11/09 12:42:19;;;;;;;2.40;0.70;;;;;;;;;;4995204;28;20049;-82
2022/11/09 12:45:06;;;;;;;4.45;0.73;;;;;;;;;;4995145;28;20050;-83
2022/11/09 12:47:41;;;;;;;1.20;0.60;;;;;;;;;;4994947;28;20061;-85
2022/11/09 12:50:13;;;;;;;1.80;0.80;;;;;;;;;;4989778;28;20151;-81
2022/11/09 12:52:40;;;;;;;1.00;0.50;;;;;;;;;;4994650;28;20124;-81
2022/11/09 12:55:11;;;;;;;1.45;0.73;;;;;;;;;;4994068;28;20056;-81
2022/11/09 12:57:38;;;;;;;0.88;0.60;;;;;;;;;;4993395;28;20050;-81
2022/11/09 13:00:05;;;;;;;1.23;0.47;;;;;;;;;;4994214;28;20361;-85
2022/11/09 13:02:41;;;;;;;2.75;0.70;;;;;;;;;;4997358;28;20050;-83
2022/11/09 13:05:26;;;;;;;1.38;0.80;;;;;;;;;;5007804;28;20050;-81
2022/11/09 13:07:53;;;;;;;0.90;0.70;;;;;;;;;;5012349;28;20050;-78
2022/11/09 13:10:38;;;;;;;2.75;0.90;;;;;;;;;;5027293;28;20164;-81
2022/11/09 13:13:04;;;;;;;1.60;0.70;;;;;;;;;;5018971;28;20042;-80
2022/11/09 13:15:33;;;;;;;2.25;0.73;;;;;;;;;;5005562;28;20054;-80
2022/11/09 13:18:18;;;;;;;1.70;0.80;;;;;;;;;;4997635;28;20050;-82
2022/11/09 13:20:45;;;;;;;1.17;0.73;;;;;;;;;;5002152;28;20050;-80
2022/11/09 13:23:36;;;;;;;2.53;0.70;;;;;;;;;;4998684;28;20286;-82
2022/11/09 13:26:31;;;;;;;2.60;0.90;;;;;;;;;;4991117;28;20108;-83
2022/11/09 13:29:06;;;;;;;1.65;0.70;;;;;;;;;;4992297;28;20138;-81
2022/11/09 13:31:52;;;;;;;2.10;0.80;;;;;;;;;;4992291;28;20559;-81
2022/11/09 13:34:37;;;;;;;2.83;1.10;;;;;;;;;;4988083;28;20053;-82
2022/11/09 13:37:23;;;;;;;2.22;0.90;;;;;;;;;;4986405;28;20057;-82
2022/11/09 13:39:50;;;;;;;1.23;0.90;;;;;;;;;;4993330;28;20046;-81
2022/11/09 13:42:28;;;;;;;1.65;0.80;;;;;;;;;;4992933;28;20050;-82
2022/11/09 13:45:14;;;;;;;1.60;0.88;;;;;;;;;;4987737;28;20058;-83
2022/11/09 13:47:48;;;;;;;1.23;0.82;;;;;;;;;;4992231;28;20525;-83
2022/11/09 13:50:41;;;;;;;1.10;0.80;;;;;;;;;;4993496;28;20054;-83
2022/11/09 13:53:43;;;;;;;1.92;0.90;;;;;;;;;;4985563;28;20125;-81
2022/11/09 13:56:12;;;;;;;3.97;0.80;;;;;;;;;;4969189;28;20055;-81
2022/11/09 13:58:39;;;;;;;1.40;0.90;;;;;;;;;;4983648;28;20446;-81
2022/11/09 14:01:23;;;;;;;1.42;0.88;;;;;;;;;;4992405;28;20057;-82
2022/11/09 14:03:50;;;;;;;1.63;1.00;;;;;;;;;;4997063;28;20053;-82
2022/11/09 14:06:17;;;;;;;2.35;1.05;;;;;;;;;;4998827;28;20052;-79
2022/11/09 14:08:43;;;;;;;2.30;1.00;;;;;;;;;;5010631;28;20045;-81
2022/11/09 14:11:22;;;;;;;1.63;0.82;;;;;;;;;;5006660;28;20141;-82
2022/11/09 14:14:11;;;;;;;2.05;1.00;;;;;;;;;;5008058;28;20056;-82
2022/11/09 14:17:01;;;;;;;1.80;0.90;;;;;;;;;;4992075;28;20065;-83
2022/11/09 14:19:33;;;;;;;1.65;0.90;;;;;;;;;;4983783;28;20058;-83
2022/11/09 14:22:00;;;;;;;1.50;0.93;;;;;;;;;;4985791;28;20050;-80
2022/11/09 14:24:33;;;;;;;2.05;0.90;;;;;;;;;;4988873;28;20455;-82
2022/11/09 14:27:00;;;;;;;1.67;1.10;;;;;;;;;;4987949;28;20078;-82
2022/11/09 14:29:28;;;;;;;1.95;1.10;;;;;;;;;;4992853;28;20046;-81
2022/11/09 14:31:55;;;;;;;1.73;0.93;;;;;;;;;;4986741;28;20534;-80
2022/11/09 14:34:21;;;;;;;1.40;0.98;;;;;;;;;;4990055;28;20042;-80
2022/11/09 14:36:48;;;;;;;2.88;1.20;;;;;;;;;;4990938;28;20054;-80
2022/11/09 14:39:34;;;;;;;4.25;1.40;;;;;;;;;;4986955;28;20046;-80
2022/11/09 14:42:00;;;;;;;2.80;1.25;;;;;;;;;;4986292;28;20053;-81
2022/11/09 14:44:28;;;;;;;2.70;1.20;;;;;;;;;;4990247;28;20052;-81
2022/11/09 14:46:55;;;;;;;2.80;1.13;;;;;;;;;;4992467;28;20407;-82
2022/11/09 14:49:24;;;;;;;2.17;1.30;;;;;;;;;;4990756;28;20074;-81
2022/11/09 14:51:51;;;;;;;2.53;1.23;;;;;;;;;;4990416;28;20566;-80
2022/11/09 14:54:20;;;;;;;5.53;1.38;;;;;;;;;;4988281;28;20057;-82
2022/11/09 14:56:47;;;;;;;4.30;1.35;;;;;;;;;;4986092;28;20054;-82
2022/11/09 14:59:15;;;;;;;3.58;1.35;;;;;;;;;;4996301;28;20050;-82